Time;durP1;ratioP1;P1;durP2;ratioP2;P2;SDS_P1;SDS_P2;PMS_P1;PMS_P2;Temp;Humidity;BMP_temperature;BMP_pressure;BME280_temperature;BME280_humidity;BME280_pressure;Samples;Min_cycle;Max_cycle;Signal;HPM_P1;HPM_P2
2021/01/07 00:01:51;;;;;;;17.17;14.27;;;3.00;99.90;;;;;;5071692;28;20443;-70
2021/01/07 00:04:18;;;;;;;14.70;13.37;;;3.00;99.90;;;;;;5072048;28;20509;-69
2021/01/07 00:06:45;;;;;;;15.97;14.27;;;3.00;99.90;;;;;;5072009;28;20853;-68
2021/01/07 00:09:11;;;;;;;15.10;13.70;;;3.00;99.90;;;;;;5072011;28;20438;-68
2021/01/07 00:11:40;;;;;;;15.23;13.70;;;3.00;99.90;;;;;;5071852;28;20470;-70
2021/01/07 00:14:07;;;;;;;17.03;14.40;;;3.00;99.90;;;;;;5072060;28;20487;-69
2021/01/07 00:16:33;;;;;;;16.73;14.73;;;3.00;99.90;;;;;;5072021;28;20817;-71
2021/01/07 00:19:00;;;;;;;17.03;14.23;;;3.10;99.90;;;;;;5071838;28;20446;-70
2021/01/07 00:21:27;;;;;;;16.60;14.50;;;3.10;99.90;;;;;;5071695;28;20444;-70
2021/01/07 00:23:53;;;;;;;16.00;13.60;;;3.00;99.90;;;;;;5071818;28;20467;-71
2021/01/07 00:26:19;;;;;;;15.87;13.87;;;3.10;99.90;;;;;;5071793;28;20479;-69
2021/01/07 00:28:47;;;;;;;16.23;14.63;;;3.10;99.90;;;;;;5071801;28;20444;-70
2021/01/07 00:31:14;;;;;;;18.10;14.50;;;3.10;99.90;;;;;;5071591;28;20474;-69
2021/01/07 00:33:40;;;;;;;16.40;14.67;;;3.10;99.90;;;;;;5071669;28;20470;-69
2021/01/07 00:36:07;;;;;;;17.63;15.83;;;3.10;99.90;;;;;;5071741;28;20928;-69
2021/01/07 00:38:34;;;;;;;14.47;13.03;;;3.10;99.90;;;;;;5071675;28;20454;-68
2021/01/07 00:41:00;;;;;;;16.67;14.93;;;3.10;99.90;;;;;;5071426;28;20442;-69
2021/01/07 00:43:27;;;;;;;16.93;14.30;;;3.10;99.90;;;;;;5071358;28;20463;-69
2021/01/07 00:45:53;;;;;;;17.47;14.93;;;3.10;99.90;;;;;;5071478;28;20483;-69
2021/01/07 00:48:20;;;;;;;16.77;15.07;;;3.20;99.90;;;;;;5071553;28;20782;-70
2021/01/07 00:50:47;;;;;;;17.93;16.13;;;3.20;99.90;;;;;;5071190;28;20496;-70
2021/01/07 00:53:13;;;;;;;20.30;15.83;;;3.20;99.90;;;;;;5071564;28;20459;-70
2021/01/07 00:55:41;;;;;;;18.13;16.03;;;3.20;99.90;;;;;;5071532;28;20447;-70
2021/01/07 00:58:08;;;;;;;18.53;16.53;;;3.20;99.90;;;;;;5071597;28;20839;-70
2021/01/07 01:00:35;;;;;;;18.50;15.10;;;3.20;99.90;;;;;;5071321;28;20542;-70
2021/01/07 01:03:02;;;;;;;16.77;14.27;;;3.30;99.90;;;;;;5071305;28;20480;-68
2021/01/07 01:05:29;;;;;;;17.17;15.27;;;3.30;99.90;;;;;;5075342;28;20866;-70
2021/01/07 01:07:55;;;;;;;16.93;15.20;;;3.30;99.90;;;;;;5075560;28;20506;-72
2021/01/07 01:10:21;;;;;;;17.10;15.40;;;3.30;99.90;;;;;;5078906;28;20446;-72
2021/01/07 01:12:48;;;;;;;19.10;16.70;;;3.30;99.90;;;;;;5076850;28;20463;-70
2021/01/07 01:15:15;;;;;;;21.93;17.37;;;3.20;99.90;;;;;;5075607;28;20860;-73
2021/01/07 01:17:42;;;;;;;19.13;17.03;;;3.20;99.90;;;;;;5075419;28;20807;-72
2021/01/07 01:20:10;;;;;;;18.67;16.20;;;3.20;99.90;;;;;;5075220;28;20890;-73
2021/01/07 01:22:38;;;;;;;20.00;16.33;;;3.20;99.90;;;;;;5075190;28;20516;-72
2021/01/07 01:25:08;;;;;;;22.40;16.37;;;3.20;99.90;;;;;;5075169;28;20447;-72
2021/01/07 01:27:35;;;;;;;20.53;18.50;;;3.10;99.90;;;;;;5075144;28;20489;-72
2021/01/07 01:30:03;;;;;;;20.03;16.50;;;3.10;99.90;;;;;;5074947;28;20494;-72
2021/01/07 01:32:29;;;;;;;17.93;15.83;;;3.20;99.90;;;;;;5074986;28;20482;-72
2021/01/07 01:34:56;;;;;;;18.30;16.50;;;3.20;99.90;;;;;;5075130;28;20827;-72
2021/01/07 01:37:22;;;;;;;18.60;16.60;;;3.20;99.90;;;;;;5074977;28;20447;-72
2021/01/07 01:39:48;;;;;;;23.50;18.60;;;3.20;99.90;;;;;;5074867;28;20444;-69
2021/01/07 01:42:14;;;;;;;20.13;17.00;;;3.20;99.90;;;;;;5074755;28;20459;-70
2021/01/07 01:44:41;;;;;;;19.27;17.00;;;3.20;99.90;;;;;;5074741;28;20455;-70
2021/01/07 01:47:08;;;;;;;18.33;16.57;;;3.20;99.90;;;;;;5074837;28;20479;-70
2021/01/07 01:49:34;;;;;;;18.67;16.70;;;3.20;99.90;;;;;;5074523;28;20446;-70
2021/01/07 01:52:01;;;;;;;20.50;18.10;;;3.10;99.90;;;;;;5074498;28;20474;-71
2021/01/07 01:54:27;;;;;;;26.93;19.10;;;3.10;99.90;;;;;;5074539;28;20486;-71
2021/01/07 01:56:57;;;;;;;21.90;19.20;;;3.10;99.90;;;;;;5074561;28;20439;-71
2021/01/07 01:59:29;;;;;;;28.20;19.67;;;3.10;99.90;;;;;;5074526;28;20447;-71
2021/01/07 02:01:55;;;;;;;21.93;19.50;;;3.10;99.90;;;;;;5074192;28;20443;-73
2021/01/07 02:04:22;;;;;;;23.63;19.93;;;3.10;99.90;;;;;;5074440;28;20788;-71
2021/01/07 02:06:49;;;;;;;20.00;17.73;;;3.10;99.90;;;;;;5074297;28;20478;-71
2021/01/07 02:09:15;;;;;;;19.20;17.30;;;3.10;99.90;;;;;;5074375;28;20447;-69
2021/01/07 02:11:42;;;;;;;20.50;18.07;;;3.00;99.90;;;;;;5073915;28;20443;-70
2021/01/07 02:14:08;;;;;;;23.13;17.67;;;3.00;99.90;;;;;;5073949;28;20435;-69
2021/01/07 02:16:35;;;;;;;21.07;18.17;;;3.00;99.90;;;;;;5074112;28;20436;-69
2021/01/07 02:19:01;;;;;;;19.40;16.73;;;3.00;99.90;;;;;;5074078;28;20801;-70
2021/01/07 02:21:28;;;;;;;23.33;17.43;;;3.00;99.90;;;;;;5073836;28;20443;-69
2021/01/07 02:23:56;;;;;;;21.90;17.50;;;2.90;99.90;;;;;;5074100;28;20481;-70
2021/01/07 02:26:23;;;;;;;18.70;16.47;;;3.00;99.90;;;;;;5073854;28;20479;-69
2021/01/07 02:28:50;;;;;;;21.37;17.27;;;3.00;99.90;;;;;;5073967;28;20447;-70
2021/01/07 02:31:17;;;;;;;21.30;17.30;;;3.00;99.90;;;;;;5073724;28;20991;-70
2021/01/07 02:33:44;;;;;;;21.30;16.63;;;3.00;99.90;;;;;;5073841;28;20994;-70
2021/01/07 02:36:11;;;;;;;24.33;18.47;;;3.10;99.90;;;;;;5073854;28;20431;-70
2021/01/07 02:38:38;;;;;;;20.70;17.77;;;3.10;99.90;;;;;;5073738;28;20439;-70
2021/01/07 02:41:05;;;;;;;21.03;16.80;;;3.10;99.90;;;;;;5073456;28;20439;-69
2021/01/07 02:43:31;;;;;;;20.90;16.17;;;3.10;99.90;;;;;;5073711;28;20467;-70
2021/01/07 02:45:58;;;;;;;20.87;17.67;;;3.20;99.90;;;;;;5073639;28;20504;-70
2021/01/07 02:48:24;;;;;;;17.87;16.00;;;3.20;99.90;;;;;;5073552;28;20576;-70
2021/01/07 02:50:50;;;;;;;24.83;18.50;;;3.20;99.90;;;;;;5073354;28;20454;-70
2021/01/07 02:53:17;;;;;;;18.97;16.37;;;3.10;99.90;;;;;;5073442;28;20871;-70
2021/01/07 02:55:44;;;;;;;21.33;17.90;;;3.20;99.90;;;;;;5073493;28;21149;-70
2021/01/07 02:58:10;;;;;;;22.93;17.80;;;3.10;99.90;;;;;;5073505;28;20441;-70
2021/01/07 03:00:36;;;;;;;20.67;18.50;;;3.10;99.90;;;;;;5073066;28;20444;-70
2021/01/07 03:03:03;;;;;;;22.27;18.00;;;3.00;99.90;;;;;;5073118;28;21000;-70
2021/01/07 03:05:29;;;;;;;22.30;17.40;;;3.00;99.90;;;;;;5073281;28;20447;-69
2021/01/07 03:07:55;;;;;;;22.77;20.30;;;2.90;99.90;;;;;;5073149;28;20486;-69
2021/01/07 03:10:21;;;;;;;20.67;17.50;;;2.90;99.90;;;;;;5072960;28;20439;-69
2021/01/07 03:12:48;;;;;;;20.47;16.73;;;2.90;99.90;;;;;;5073204;28;20459;-70
2021/01/07 03:15:15;;;;;;;22.53;20.03;;;2.90;99.90;;;;;;5073306;28;20500;-69
2021/01/07 03:17:41;;;;;;;23.70;16.47;;;3.00;99.90;;;;;;5072958;28;20444;-69
2021/01/07 03:20:12;;;;;;;20.40;18.10;;;3.00;99.90;;;;;;5072803;28;20436;-68
2021/01/07 03:22:39;;;;;;;24.03;18.00;;;3.00;99.90;;;;;;5072802;28;20473;-70
2021/01/07 03:25:07;;;;;;;22.27;19.17;;;3.00;99.90;;;;;;5072861;28;20447;-69
2021/01/07 03:27:33;;;;;;;25.63;18.70;;;3.00;99.90;;;;;;5072115;28;20532;-70
2021/01/07 03:30:00;;;;;;;22.47;18.63;;;3.00;99.90;;;;;;5072550;28;20925;-69
2021/01/07 03:32:27;;;;;;;24.30;19.90;;;3.00;99.90;;;;;;5072586;28;20466;-69
2021/01/07 03:34:53;;;;;;;20.70;18.40;;;3.00;99.90;;;;;;5072707;28;20474;-69
2021/01/07 03:37:20;;;;;;;23.43;17.87;;;3.00;99.90;;;;;;5072495;28;20436;-69
2021/01/07 03:39:46;;;;;;;25.37;20.50;;;3.10;99.90;;;;;;5072396;28;20446;-69
2021/01/07 03:42:12;;;;;;;26.30;21.63;;;3.00;99.90;;;;;;5072446;28;20459;-69
2021/01/07 03:44:38;;;;;;;23.03;19.23;;;3.10;99.90;;;;;;5072563;28;20447;-71
2021/01/07 03:47:06;;;;;;;24.97;20.00;;;3.10;99.90;;;;;;5072429;28;20529;-70
2021/01/07 03:49:32;;;;;;;25.17;19.73;;;3.10;99.90;;;;;;5072316;28;20446;-69
2021/01/07 03:51:58;;;;;;;24.97;20.40;;;3.10;99.90;;;;;;5072099;28;20821;-70
2021/01/07 03:54:24;;;;;;;25.27;21.40;;;3.10;99.90;;;;;;5072298;28;20806;-70
2021/01/07 03:56:51;;;;;;;30.10;20.67;;;3.10;99.90;;;;;;5072223;28;20440;-71
2021/01/07 03:59:17;;;;;;;26.33;20.90;;;3.10;99.90;;;;;;5072300;28;20435;-71
2021/01/07 04:01:43;;;;;;;29.40;21.33;;;3.10;99.90;;;;;;5071661;28;20443;-70
2021/01/07 04:04:10;;;;;;;25.87;21.10;;;3.20;99.90;;;;;;5072153;28;20443;-70
2021/01/07 04:06:36;;;;;;;23.80;20.90;;;3.10;99.90;;;;;;5072065;28;20479;-70
2021/01/07 04:09:04;;;;;;;25.40;20.47;;;3.10;99.90;;;;;;5072062;28;20447;-69
2021/01/07 04:11:30;;;;;;;25.10;21.23;;;3.20;99.90;;;;;;5071789;28;20447;-69
2021/01/07 04:13:56;;;;;;;25.03;20.10;;;3.20;99.90;;;;;;5071848;28;20478;-70
2021/01/07 04:16:23;;;;;;;25.20;20.73;;;3.20;99.90;;;;;;5071871;28;20925;-70
2021/01/07 04:18:50;;;;;;;24.77;20.80;;;3.10;99.90;;;;;;5071931;28;20447;-70
2021/01/07 04:21:19;;;;;;;27.37;21.10;;;3.10;99.90;;;;;;5071657;28;20439;-70
2021/01/07 04:23:45;;;;;;;30.83;22.70;;;3.10;99.90;;;;;;5071708;28;20532;-70
2021/01/07 04:26:11;;;;;;;24.97;20.47;;;3.10;99.90;;;;;;5071764;28;20443;-70
2021/01/07 04:28:38;;;;;;;29.00;22.60;;;3.10;99.90;;;;;;5072416;28;20454;-71
2021/01/07 04:31:04;;;;;;;27.70;23.07;;;3.20;99.90;;;;;;5073077;28;20564;-70
2021/01/07 04:33:30;;;;;;;27.80;23.30;;;3.20;99.90;;;;;;5073409;28;20516;-70
2021/01/07 04:35:56;;;;;;;26.83;23.00;;;3.20;99.90;;;;;;5073617;28;20466;-70
2021/01/07 04:38:23;;;;;;;25.73;22.83;;;3.20;99.90;;;;;;5071486;28;20501;-70
2021/01/07 04:40:50;;;;;;;25.93;22.60;;;3.20;99.90;;;;;;5071401;28;20446;-70
2021/01/07 04:43:16;;;;;;;28.03;23.60;;;3.20;99.90;;;;;;5071574;28;20463;-69
2021/01/07 04:45:42;;;;;;;27.37;23.10;;;3.20;99.90;;;;;;5071497;28;20496;-71
2021/01/07 04:48:09;;;;;;;27.73;23.17;;;3.20;99.90;;;;;;5071300;28;20525;-70
2021/01/07 04:50:35;;;;;;;28.43;23.33;;;3.20;99.90;;;;;;5071358;28;20446;-70
2021/01/07 04:53:02;;;;;;;35.43;23.67;;;3.30;99.90;;;;;;5071579;28;20474;-71
2021/01/07 04:55:30;;;;;;;30.13;23.10;;;3.20;99.90;;;;;;5073241;28;20447;-70
2021/01/07 04:57:56;;;;;;;29.70;23.90;;;3.30;99.90;;;;;;5075985;28;20439;-71
2021/01/07 05:00:23;;;;;;;34.57;24.13;;;3.30;99.90;;;;;;5071252;28;20456;-71
2021/01/07 05:02:50;;;;;;;29.97;23.60;;;3.30;99.90;;;;;;5071938;28;20497;-69
2021/01/07 05:05:16;;;;;;;27.43;22.30;;;3.30;99.90;;;;;;5071506;28;20500;-70
2021/01/07 05:07:42;;;;;;;30.23;22.27;;;3.20;99.90;;;;;;5071067;28;20490;-70
2021/01/07 05:10:11;;;;;;;28.67;24.67;;;3.20;99.90;;;;;;5071232;28;20440;-69
2021/01/07 05:12:39;;;;;;;30.57;21.80;;;3.10;99.90;;;;;;5071149;28;20467;-70
2021/01/07 05:15:07;;;;;;;31.37;25.47;;;3.00;99.90;;;;;;5071279;28;20816;-69
2021/01/07 05:17:35;;;;;;;33.23;24.20;;;3.00;99.90;;;;;;5071277;28;20516;-69
2021/01/07 05:20:01;;;;;;;30.07;24.30;;;3.00;99.90;;;;;;5070972;28;20418;-70
2021/01/07 05:22:35;;;;;;;33.17;26.77;;;3.00;99.90;;;;;;5071090;28;20808;-69
2021/01/07 05:25:02;;;;;;;39.70;26.60;;;3.00;99.90;;;;;;5071169;28;20501;-68
2021/01/07 05:27:29;;;;;;;38.30;26.33;;;3.00;99.90;;;;;;5071061;28;20483;-69
2021/01/07 05:30:02;;;;;;;37.20;24.37;;;3.10;99.90;;;;;;5070911;28;20439;-71
2021/01/07 05:32:36;;;;;;;33.33;25.70;;;3.10;99.90;;;;;;5071006;28;20536;-68
2021/01/07 05:35:04;;;;;;;34.53;23.70;;;3.00;99.90;;;;;;5070953;28;20449;-69
2021/01/07 05:37:35;;;;;;;39.63;28.83;;;3.00;99.90;;;;;;5070991;28;20450;-69
2021/01/07 05:40:01;;;;;;;33.37;24.03;;;3.10;99.90;;;;;;5070799;28;20447;-70
2021/01/07 05:42:35;;;;;;;45.90;27.53;;;3.00;99.90;;;;;;5070854;28;20470;-69
2021/01/07 05:45:06;;;;;;;42.00;28.20;;;3.00;99.90;;;;;;5071077;28;20453;-69
2021/01/07 05:47:38;;;;;;;39.73;26.30;;;3.00;99.90;;;;;;5070631;28;20475;-68
2021/01/07 05:50:07;;;;;;;42.50;29.70;;;3.00;99.90;;;;;;5072113;28;20442;-70
2021/01/07 05:52:33;;;;;;;35.40;26.53;;;3.00;99.90;;;;;;5074527;28;20459;-69
2021/01/07 05:55:00;;;;;;;41.07;28.90;;;3.00;99.90;;;;;;5074028;28;20450;-68
2021/01/07 05:57:29;;;;;;;47.27;31.70;;;3.00;99.90;;;;;;5074374;28;20438;-68
2021/01/07 05:59:56;;;;;;;40.73;27.80;;;3.00;99.90;;;;;;5074190;28;20469;-68
2021/01/07 06:02:24;;;;;;;51.10;29.40;;;3.00;99.90;;;;;;5074075;28;20478;-69
2021/01/07 06:04:52;;;;;;;44.80;29.57;;;3.00;99.90;;;;;;5074433;28;20439;-68
2021/01/07 06:07:19;;;;;;;45.67;30.77;;;2.90;99.90;;;;;;5074319;28;20479;-69
2021/01/07 06:09:47;;;;;;;48.57;30.33;;;2.90;99.90;;;;;;5074258;28;20803;-69
2021/01/07 06:12:14;;;;;;;43.07;28.60;;;2.90;99.90;;;;;;5074185;28;20496;-71
2021/01/07 06:14:42;;;;;;;41.53;28.93;;;3.00;99.90;;;;;;5074256;28;20444;-71
2021/01/07 06:17:09;;;;;;;36.83;25.23;;;3.00;99.90;;;;;;5074225;28;20438;-71
2021/01/07 06:19:40;;;;;;;40.80;28.10;;;2.90;99.90;;;;;;5073929;28;20439;-71
2021/01/07 06:22:11;;;;;;;34.50;24.90;;;2.90;99.90;;;;;;5073779;28;20467;-71
2021/01/07 06:24:38;;;;;;;45.60;27.57;;;2.90;99.90;;;;;;5074056;28;20672;-70
2021/01/07 06:27:25;;;;;;;39.57;27.33;;;2.90;99.90;;;;;;5073879;28;20852;-69
2021/01/07 06:29:57;;;;;;;35.20;24.50;;;2.80;99.90;;;;;;5073739;28;20450;-69
2021/01/07 06:32:24;;;;;;;35.17;26.17;;;2.70;99.90;;;;;;5073823;28;20463;-70
2021/01/07 06:34:51;;;;;;;48.77;28.73;;;2.70;99.90;;;;;;5073671;28;20443;-69
2021/01/07 06:37:30;;;;;;;46.53;29.50;;;2.70;99.90;;;;;;5073666;28;20873;-69
2021/01/07 06:39:57;;;;;;;34.23;25.87;;;2.70;99.90;;;;;;5073680;28;20492;-70
2021/01/07 06:42:24;;;;;;;50.90;27.83;;;2.70;99.90;;;;;;5073483;28;20516;-69
2021/01/07 06:44:52;;;;;;;35.90;26.77;;;2.70;99.90;;;;;;5073687;28;20439;-69
2021/01/07 06:47:19;;;;;;;46.00;26.80;;;2.70;99.90;;;;;;5073488;28;20551;-69
2021/01/07 06:49:46;;;;;;;41.23;27.97;;;2.70;99.90;;;;;;5073222;28;20450;-68
2021/01/07 06:52:14;;;;;;;42.93;26.27;;;2.70;99.90;;;;;;5073342;28;20467;-69
2021/01/07 06:54:42;;;;;;;47.63;29.17;;;2.70;99.90;;;;;;5073405;28;20444;-69
2021/01/07 06:57:10;;;;;;;47.20;28.67;;;2.80;99.90;;;;;;5073319;28;20440;-69
2021/01/07 06:59:37;;;;;;;48.37;31.00;;;2.80;99.90;;;;;;5073096;28;20448;-69
2021/01/07 07:02:06;;;;;;;36.13;25.27;;;2.80;99.90;;;;;;5071780;28;20475;-69
2021/01/07 07:04:33;;;;;;;49.67;29.00;;;2.80;99.90;;;;;;5073148;28;20440;-69
2021/01/07 07:07:01;;;;;;;49.07;29.10;;;2.80;99.90;;;;;;5073083;28;20488;-69
2021/01/07 07:09:38;;;;;;;45.47;29.33;;;2.80;99.90;;;;;;5073301;28;20444;-69
2021/01/07 07:12:05;;;;;;;39.20;27.47;;;2.80;99.90;;;;;;5072945;28;20467;-70
2021/01/07 07:14:32;;;;;;;37.67;24.50;;;2.80;99.90;;;;;;5073039;28;20450;-70
2021/01/07 07:17:06;;;;;;;41.67;27.23;;;2.80;99.90;;;;;;5072946;28;20444;-69
2021/01/07 07:19:36;;;;;;;41.20;25.00;;;2.90;99.90;;;;;;5072785;28;20522;-69
2021/01/07 07:22:02;;;;;;;39.67;28.20;;;2.80;99.90;;;;;;5072758;28;21157;-69
2021/01/07 07:24:34;;;;;;;43.10;25.10;;;2.90;99.90;;;;;;5072944;28;20805;-70
2021/01/07 07:27:19;;;;;;;42.00;26.57;;;2.90;99.90;;;;;;5072707;28;20467;-71
2021/01/07 07:29:52;;;;;;;41.77;28.70;;;2.90;99.90;;;;;;5072539;28;20526;-68
2021/01/07 07:32:24;;;;;;;42.80;29.27;;;2.90;99.90;;;;;;5072193;28;20455;-71
2021/01/07 07:34:51;;;;;;;43.20;29.73;;;2.90;99.90;;;;;;5072519;28;20475;-68
2021/01/07 07:37:19;;;;;;;35.97;26.33;;;2.90;99.90;;;;;;5072198;28;20447;-69
2021/01/07 07:39:48;;;;;;;48.67;30.90;;;2.90;99.90;;;;;;5072046;28;20497;-70
2021/01/07 07:42:16;;;;;;;41.63;27.80;;;3.00;99.90;;;;;;5072428;28;20462;-68
2021/01/07 07:44:43;;;;;;;36.87;25.00;;;3.00;99.90;;;;;;5072132;28;20970;-70
2021/01/07 07:47:11;;;;;;;36.37;25.20;;;3.00;99.90;;;;;;5072412;28;20483;-69
2021/01/07 07:49:37;;;;;;;42.97;26.93;;;3.00;99.90;;;;;;5072002;28;20441;-70
2021/01/07 07:52:04;;;;;;;43.50;25.50;;;3.00;99.90;;;;;;5072126;28;20467;-69
2021/01/07 07:54:30;;;;;;;33.67;23.33;;;3.00;99.90;;;;;;5072242;28;20450;-70
2021/01/07 07:57:01;;;;;;;32.07;23.17;;;3.00;99.90;;;;;;5072174;28;20440;-70
2021/01/07 07:59:27;;;;;;;40.27;27.07;;;2.90;99.90;;;;;;5072476;28;20645;-71
2021/01/07 08:01:54;;;;;;;41.83;29.07;;;2.90;99.90;;;;;;5072475;28;20447;-69
2021/01/07 08:04:22;;;;;;;42.23;28.53;;;2.90;99.90;;;;;;5072374;28;20530;-70
2021/01/07 08:06:49;;;;;;;36.50;24.83;;;2.90;99.90;;;;;;5072181;28;20482;-70
2021/01/07 08:09:18;;;;;;;39.93;27.47;;;2.90;99.90;;;;;;5071946;28;20516;-70
2021/01/07 08:11:46;;;;;;;41.93;29.13;;;2.90;99.90;;;;;;5072204;28;20500;-70
2021/01/07 08:14:16;;;;;;;34.07;26.93;;;2.90;99.90;;;;;;5072166;28;20963;-69
2021/01/07 08:16:43;;;;;;;37.77;25.40;;;2.90;99.90;;;;;;5071777;28;20454;-69
2021/01/07 08:19:21;;;;;;;40.03;27.90;;;2.90;99.90;;;;;;5071723;28;20450;-68
2021/01/07 08:21:48;;;;;;;39.10;27.83;;;2.90;99.90;;;;;;5071592;28;20446;-71
2021/01/07 08:24:19;;;;;;;40.63;26.43;;;2.90;99.90;;;;;;5071615;28;20447;-72
2021/01/07 08:26:58;;;;;;;42.40;29.67;;;3.00;99.90;;;;;;5072148;28;21003;-70
2021/01/07 08:29:27;;;;;;;36.00;24.80;;;3.00;99.90;;;;;;5071803;28;20483;-70
2021/01/07 08:31:58;;;;;;;35.10;26.60;;;3.00;99.90;;;;;;5071457;28;20952;-67
2021/01/07 08:34:25;;;;;;;34.67;24.90;;;3.00;99.90;;;;;;5071444;28;20451;-70
2021/01/07 08:36:52;;;;;;;36.90;25.83;;;3.00;99.90;;;;;;5071699;28;20439;-68
2021/01/07 08:39:18;;;;;;;39.23;24.80;;;3.00;99.90;;;;;;5071529;28;20541;-67
2021/01/07 08:41:45;;;;;;;36.03;25.07;;;3.00;99.90;;;;;;5071354;28;20467;-68
2021/01/07 08:44:12;;;;;;;36.20;24.63;;;3.00;99.90;;;;;;5071578;28;20447;-69
2021/01/07 08:46:41;;;;;;;29.97;20.53;;;3.00;99.90;;;;;;5071474;28;20578;-68
2021/01/07 08:49:08;;;;;;;28.47;21.30;;;3.10;99.90;;;;;;5071363;28;20929;-68
2021/01/07 08:51:39;;;;;;;30.30;21.73;;;3.10;99.90;;;;;;5071204;28;20864;-68
2021/01/07 08:54:15;;;;;;;26.37;21.93;;;3.10;99.90;;;;;;5071389;28;20530;-70
2021/01/07 08:56:43;;;;;;;31.67;22.90;;;3.20;99.90;;;;;;5071398;28;20846;-70
2021/01/07 08:59:20;;;;;;;31.37;24.20;;;3.20;99.90;;;;;;5071222;28;20443;-70
2021/01/07 09:01:48;;;;;;;29.67;21.07;;;3.20;99.90;;;;;;5070732;28;20446;-69
2021/01/07 09:04:32;;;;;;;28.80;21.63;;;3.20;99.90;;;;;;5071272;28;20436;-71
2021/01/07 09:07:00;;;;;;;31.30;22.70;;;3.30;99.90;;;;;;5071141;28;20528;-67
2021/01/07 09:09:27;;;;;;;27.60;21.90;;;3.30;99.90;;;;;;5071305;28;20466;-69
2021/01/07 09:12:19;;;;;;;28.53;22.30;;;3.30;99.90;;;;;;5071132;28;20443;-69
2021/01/07 09:14:53;;;;;;;29.17;20.37;;;3.30;99.90;;;;;;5071255;28;20439;-70
2021/01/07 09:17:22;;;;;;;29.70;22.50;;;3.40;99.90;;;;;;5071193;28;20472;-71
2021/01/07 09:19:49;;;;;;;28.90;21.57;;;3.50;99.90;;;;;;5071195;28;20502;-70
2021/01/07 09:22:24;;;;;;;27.93;21.00;;;3.50;99.90;;;;;;5071030;28;20478;-72
2021/01/07 09:24:52;;;;;;;22.40;19.90;;;3.60;99.90;;;;;;5072258;28;20465;-69
2021/01/07 09:27:20;;;;;;;27.93;20.93;;;3.80;99.90;;;;;;5075115;28;20521;-70
2021/01/07 09:29:47;;;;;;;30.73;20.80;;;4.00;99.90;;;;;;5077049;28;20869;-71
2021/01/07 09:32:14;;;;;;;28.40;21.03;;;4.10;99.90;;;;;;5075081;28;20473;-67
2021/01/07 09:34:42;;;;;;;24.67;20.40;;;4.10;99.90;;;;;;5075340;28;20446;-69
2021/01/07 09:37:12;;;;;;;30.40;22.90;;;4.10;99.90;;;;;;5075570;28;20443;-69
2021/01/07 09:39:38;;;;;;;21.50;18.90;;;4.00;99.90;;;;;;5074529;28;20487;-68
2021/01/07 09:42:06;;;;;;;24.80;21.07;;;3.90;99.90;;;;;;5075150;28;20497;-67
2021/01/07 09:44:34;;;;;;;28.67;22.50;;;3.80;99.90;;;;;;5074943;28;20481;-67
2021/01/07 09:47:01;;;;;;;25.57;20.83;;;3.80;99.90;;;;;;5074617;28;20532;-67
2021/01/07 09:49:28;;;;;;;24.33;20.20;;;3.90;99.90;;;;;;5074760;28;20444;-69
2021/01/07 09:51:57;;;;;;;24.20;20.03;;;3.80;99.90;;;;;;5074615;28;20515;-67
2021/01/07 09:54:24;;;;;;;27.47;21.03;;;3.70;99.90;;;;;;5074628;28;20807;-67
2021/01/07 09:56:52;;;;;;;31.43;23.40;;;3.70;99.90;;;;;;5074529;28;20478;-69
2021/01/07 09:59:20;;;;;;;23.33;19.77;;;3.80;99.90;;;;;;5075281;28;20465;-67
2021/01/07 10:01:47;;;;;;;24.60;20.80;;;3.80;99.90;;;;;;5075010;28;20500;-69
2021/01/07 10:04:14;;;;;;;24.30;20.57;;;3.70;99.90;;;;;;5078351;28;20438;-70
2021/01/07 10:06:42;;;;;;;29.63;23.00;;;3.80;99.90;;;;;;5078793;28;20446;-68
2021/01/07 10:09:09;;;;;;;23.10;19.83;;;3.90;99.90;;;;;;5082358;28;20477;-68
2021/01/07 10:11:36;;;;;;;23.93;18.20;;;3.80;99.90;;;;;;5079314;28;20442;-68
2021/01/07 10:14:03;;;;;;;22.80;19.93;;;3.80;99.90;;;;;;5075041;28;20882;-69
2021/01/07 10:16:30;;;;;;;25.03;22.40;;;3.80;99.90;;;;;;5082184;28;20453;-69
2021/01/07 10:18:57;;;;;;;25.20;20.70;;;3.90;99.90;;;;;;5079856;28;20482;-68
2021/01/07 10:21:24;;;;;;;22.30;19.27;;;3.90;99.90;;;;;;5073778;28;20455;-67
2021/01/07 10:23:52;;;;;;;21.40;19.10;;;4.00;99.90;;;;;;5080199;28;20463;-69
2021/01/07 10:26:21;;;;;;;26.87;22.63;;;4.00;99.90;;;;;;5080593;28;20810;-68
2021/01/07 10:28:49;;;;;;;26.13;21.90;;;4.00;99.90;;;;;;5081128;28;20479;-69
2021/01/07 10:31:17;;;;;;;22.87;20.47;;;4.10;99.90;;;;;;5080858;28;20451;-70
2021/01/07 10:33:45;;;;;;;28.10;20.47;;;4.00;99.90;;;;;;5082766;28;20452;-70
2021/01/07 10:36:14;;;;;;;25.30;20.27;;;4.10;99.90;;;;;;5081890;28;20463;-70
2021/01/07 10:38:42;;;;;;;23.90;19.33;;;4.10;99.90;;;;;;5079001;28;20461;-70
2021/01/07 10:41:09;;;;;;;23.87;20.07;;;4.10;99.90;;;;;;5075766;28;20454;-69
2021/01/07 10:43:37;;;;;;;22.90;17.67;;;4.20;99.90;;;;;;5073934;28;20824;-66
2021/01/07 10:46:04;;;;;;;20.37;18.27;;;4.30;99.90;;;;;;5073601;28;20534;-66
2021/01/07 10:48:35;;;;;;;23.00;20.50;;;4.20;99.90;;;;;;5073389;28;20536;-67
2021/01/07 10:51:03;;;;;;;20.73;18.57;;;4.20;99.90;;;;;;5072949;28;20435;-67
2021/01/07 10:53:53;;;;;;;21.83;19.47;;;4.10;99.90;;;;;;5073369;28;20471;-68
2021/01/07 10:56:26;;;;;;;21.40;19.20;;;4.10;99.90;;;;;;5073784;28;20447;-68
2021/01/07 10:59:09;;;;;;;22.37;19.97;;;4.20;99.90;;;;;;5073466;28;20797;-69
2021/01/07 11:01:56;;;;;;;23.87;20.40;;;4.30;99.90;;;;;;5072997;28;20796;-68
2021/01/07 11:05:02;;;;;;;22.80;20.13;;;4.30;99.90;;;;;;5073789;28;20530;-68
2021/01/07 11:07:33;;;;;;;23.63;21.13;;;4.30;99.90;;;;;;5073305;28;20537;-69
2021/01/07 11:10:05;;;;;;;23.10;20.50;;;4.40;99.90;;;;;;5073003;28;20443;-70
2021/01/07 11:12:40;;;;;;;24.60;20.10;;;4.40;99.90;;;;;;5072987;28;20968;-67
2021/01/07 11:15:13;;;;;;;27.43;22.77;;;4.40;99.90;;;;;;5074173;28;20932;-68
2021/01/07 11:17:47;;;;;;;23.33;17.60;;;4.50;99.90;;;;;;5075199;28;20431;-68
2021/01/07 11:20:15;;;;;;;23.13;18.70;;;4.50;99.90;;;;;;5073773;28;20442;-69
2021/01/07 11:22:44;;;;;;;24.10;21.60;;;4.50;99.90;;;;;;5073934;28;20548;-71
2021/01/07 11:25:12;;;;;;;20.50;18.37;;;4.60;99.90;;;;;;5072962;28;20439;-71
2021/01/07 11:27:40;;;;;;;22.20;18.93;;;4.70;99.90;;;;;;5072667;28;21010;-68
2021/01/07 11:30:09;;;;;;;21.30;18.70;;;4.70;99.90;;;;;;5072408;28;20451;-68
2021/01/07 11:32:37;;;;;;;21.50;19.00;;;4.70;99.90;;;;;;5072202;28;20471;-68
2021/01/07 11:35:08;;;;;;;27.47;19.50;;;4.70;99.90;;;;;;5072741;28;20456;-70
2021/01/07 11:37:53;;;;;;;23.50;17.40;;;4.60;99.90;;;;;;5073383;28;20526;-68
2021/01/07 11:40:42;;;;;;;27.43;19.60;;;4.60;99.90;;;;;;5072605;28;20504;-68
2021/01/07 11:43:39;;;;;;;21.67;19.37;;;4.60;99.90;;;;;;5072562;28;20467;-69
2021/01/07 11:46:13;;;;;;;23.17;20.57;;;4.40;99.90;;;;;;5072676;28;20458;-69
2021/01/07 11:48:42;;;;;;;22.93;18.70;;;4.40;99.90;;;;;;5072028;28;20566;-68
2021/01/07 11:51:12;;;;;;;23.10;18.53;;;4.40;99.90;;;;;;5072155;28;20489;-69
2021/01/07 11:53:41;;;;;;;22.07;18.70;;;4.50;99.90;;;;;;5073368;28;20463;-70
2021/01/07 11:56:08;;;;;;;21.90;18.60;;;4.50;99.90;;;;;;5074843;28;20451;-70
2021/01/07 11:58:37;;;;;;;20.63;18.43;;;4.60;99.90;;;;;;5074804;28;20513;-70
2021/01/07 12:01:04;;;;;;;22.33;20.13;;;4.60;99.90;;;;;;5072329;28;20519;-70
2021/01/07 12:03:32;;;;;;;22.27;19.87;;;4.60;99.90;;;;;;5071965;28;20475;-71
2021/01/07 12:06:02;;;;;;;24.03;18.43;;;4.70;99.90;;;;;;5072154;28;20447;-70
2021/01/07 12:08:48;;;;;;;18.90;17.03;;;4.80;99.90;;;;;;5072030;28;20905;-68
2021/01/07 12:11:21;;;;;;;24.10;19.73;;;4.80;99.90;;;;;;5057699;28;20454;-68
2021/01/07 12:13:57;;;;;;;21.73;19.40;;;4.90;99.90;;;;;;5071755;28;20463;-68
2021/01/07 12:16:34;;;;;;;20.30;18.17;;;5.00;99.90;;;;;;5071524;28;21010;-68
2021/01/07 12:19:02;;;;;;;20.80;18.80;;;5.00;99.90;;;;;;5072853;28;20820;-67
2021/01/07 12:21:30;;;;;;;19.20;16.70;;;5.00;99.90;;;;;;5072286;28;20941;-73
2021/01/07 12:24:01;;;;;;;21.77;19.43;;;4.90;99.90;;;;;;5072688;28;20462;-73
2021/01/07 12:26:27;;;;;;;19.77;17.77;;;4.80;99.90;;;;;;5072202;28;20443;-72
2021/01/07 12:28:56;;;;;;;19.93;17.83;;;4.80;99.90;;;;;;5072519;28;20483;-71
2021/01/07 12:31:23;;;;;;;17.77;15.80;;;4.80;99.90;;;;;;5071351;28;20541;-71
2021/01/07 12:34:19;;;;;;;19.73;17.57;;;4.70;99.90;;;;;;5071633;28;20507;-70
2021/01/07 12:36:59;;;;;;;21.40;17.83;;;4.70;99.90;;;;;;5072418;28;20455;-70
2021/01/07 12:39:35;;;;;;;17.73;16.13;;;4.90;99.90;;;;;;5071780;28;20512;-69
2021/01/07 12:42:08;;;;;;;18.20;16.50;;;5.00;99.90;;;;;;5071001;28;20809;-69
2021/01/07 12:44:38;;;;;;;18.27;16.57;;;5.20;99.90;;;;;;5071347;28;20447;-68